Time;durP1;ratioP1;P1;durP2;ratioP2;P2;SDS_P1;SDS_P2;PMS_P1;PMS_P2;Temp;Humidity;BMP_temperature;BMP_pressure;BME280_temperature;BME280_humidity;BME280_pressure;Samples;Min_cycle;Max_cycle;Signal;HPM_P1;HPM_P2
2021/03/19 00:00:35;;;;;;;29.42;19.45;;;;;;;2.23;64.07;93415.63;4846673;28;20095;-88
2021/03/19 00:03:06;;;;;;;34.22;22.15;;;;;;;2.51;64.38;93457.09;4920023;28;20206;-88
2021/03/19 00:05:56;;;;;;;44.45;26.38;;;;;;;2.58;63.81;93460.31;4908668;28;20303;-89
2021/03/19 00:09:25;;;;;;;38.17;24.98;;;;;;;2.28;63.75;93415.69;4847077;29;20048;-89
2021/03/19 00:12:01;;;;;;;32.63;21.42;;;;;;;2.40;63.98;93426.75;4892616;28;20043;-88
2021/03/19 00:14:37;;;;;;;28.98;20.15;;;;;;;2.61;64.25;93460.59;4831608;29;20624;-88
2021/03/19 00:17:24;;;;;;;30.88;20.20;;;;;;;2.44;64.09;93427.84;4843255;28;20250;-88
2021/03/19 00:19:53;;;;;;;29.60;18.42;;;;;;;2.26;64.22;93402.09;4849077;29;20081;-88
2021/03/19 00:23:00;;;;;;;25.08;16.90;;;;;;;2.20;64.31;93395.28;4873986;28;20110;-86
2021/03/19 00:25:47;;;;;;;22.13;14.77;;;;;;;2.13;64.40;93391.06;4901988;28;20070;-88
2021/03/19 00:28:37;;;;;;;;;;;;;;;;;;;;;
2021/03/19 00:31:30;;;;;;;26.85;17.67;;;;;;;2.03;64.74;93374.53;4885889;29;20696;-88
2021/03/19 00:34:30;;;;;;;20.90;14.27;;;;;;;2.59;64.65;93461.88;4882018;29;20044;-88
2021/03/19 00:37:23;;;;;;;22.13;15.15;;;;;;;2.67;64.56;93468.47;4896919;29;20972;-88
2021/03/19 00:40:35;;;;;;;22.65;14.77;;;;;;;2.61;64.73;93459.81;4891435;29;20135;-87
2021/03/19 00:43:29;;;;;;;21.55;14.57;;;;;;;2.44;65.22;93427.84;4883519;29;20124;-88
2021/03/19 00:46:58;;;;;;;23.25;15.30;;;;;;;2.06;65.38;93374.81;4880966;29;20123;-88
2021/03/19 00:49:29;;;;;;;22.02;15.20;;;;;;;2.28;65.00;93397.44;4830813;29;20050;-88
2021/03/19 00:52:35;;;;;;;22.35;15.18;;;;;;;2.19;65.39;93404.94;4868929;28;20075;-87
2021/03/19 00:55:45;;;;;;;27.63;16.65;;;;;;;1.96;66.30;93371.31;4910108;28;20102;-88
2021/03/19 00:58:25;;;;;;;23.05;15.52;;;;;;;2.15;65.99;93409.81;4838995;29;20497;-87
2021/03/19 01:01:09;;;;;;;25.15;16.40;;;;;;;2.00;66.00;93385.44;4849660;29;20902;-88
2021/03/19 01:03:43;;;;;;;27.90;15.95;;;;;;;2.31;66.04;93423.78;4770251;29;20499;-87
2021/03/19 01:06:55;;;;;;;;;;;;;;;;;;;;;
2021/03/19 01:12:43;;;;;;;28.35;18.30;;;;;;;2.23;65.42;93392.97;4746331;29;20050;-88
2021/03/19 01:15:09;;;;;;;25.98;16.90;;;;;;;2.35;65.79;93398.00;4781154;29;20068;-87
2021/03/19 01:17:35;;;;;;;23.67;14.95;;;;;;;2.53;65.64;93415.94;4894539;29;20048;-87
2021/03/19 01:20:15;;;;;;;24.55;16.30;;;;;;;2.67;67.33;93426.72;4938547;28;20768;-88
2021/03/19 01:23:02;;;;;;;22.88;14.95;;;;;;;2.78;65.18;93431.00;4929164;28;20042;-88
2021/03/19 01:25:56;;;;;;;22.05;15.07;;;;;;;2.35;64.74;93361.50;4957358;28;20059;-87
2021/03/19 01:28:24;;;;;;;21.83;14.20;;;;;;;2.70;65.15;93434.84;4901677;28;20052;-88
2021/03/19 01:31:06;;;;;;;19.75;13.48;;;;;;;2.28;64.83;93358.34;4953969;28;20069;-87
2021/03/19 01:33:41;;;;;;;21.65;14.95;;;;;;;2.76;64.52;93435.66;4882273;29;20054;-88
2021/03/19 01:39:39;;;;;;;20.17;14.45;;;;;;;2.71;65.33;93433.81;4853212;28;20115;-88
2021/03/19 01:42:31;;;;;;;22.20;15.25;;;;;;;2.78;64.72;93429.19;4937582;28;20064;-88
2021/03/19 01:45:31;;;;;;;20.63;14.20;;;;;;;2.79;64.52;93424.72;4922232;28;20050;-87
2021/03/19 01:48:35;;;;;;;20.40;14.43;;;;;;;2.76;64.92;93431.25;4938750;28;20053;-87
2021/03/19 01:51:50;;;;;;;22.83;14.27;;;;;;;2.87;63.85;93427.69;4927969;28;20525;-87
2021/03/19 01:54:59;;;;;;;19.10;13.05;;;;;;;2.81;64.06;93428.66;4852412;28;20623;-86
2021/03/19 01:58:12;;;;;;;22.60;14.65;;;;;;;2.87;64.14;93426.88;4922563;28;20625;-88
2021/03/19 02:01:16;;;;;;;18.20;13.43;;;;;;;2.83;64.16;93418.78;4970821;28;20050;-88
2021/03/19 02:04:19;;;;;;;20.90;14.38;;;;;;;2.81;64.52;93422.66;4953139;28;20102;-88
2021/03/19 02:07:25;;;;;;;20.42;13.50;;;;;;;2.79;64.12;93430.72;4951195;28;20046;-87
2021/03/19 02:10:38;;;;;;;21.10;15.00;;;;;;;2.81;64.39;93423.44;4950251;28;20044;-87
2021/03/19 02:14:02;;;;;;;22.08;15.75;;;;;;;2.78;64.96;93417.94;4935802;28;20050;-88
2021/03/19 02:17:19;;;;;;;23.52;14.63;;;;;;;2.80;64.40;93416.66;4887958;28;20083;-87
2021/03/19 02:23:56;;;;;;;21.27;14.77;;;;;;;2.74;64.09;93412.44;4935770;28;20426;-87
2021/03/19 02:27:08;;;;;;;16.05;11.90;;;;;;;2.80;63.18;93406.22;4895066;28;20133;-87
2021/03/19 02:30:21;;;;;;;;;;;;;;;;;;;;;
2021/03/19 02:32:52;;;;;;;16.52;12.48;;;;;;;2.22;63.22;93341.06;4851489;28;20051;-88
2021/03/19 02:35:59;;;;;;;15.00;11.68;;;;;;;2.38;62.12;93355.81;4854626;28;20420;-87
2021/03/19 02:41:32;;;;;;;15.50;11.45;;;;;;;2.42;62.02;93357.69;4877247;28;20071;-87
2021/03/19 02:44:23;;;;;;;18.80;13.10;;;;;;;2.44;61.96;93354.81;4862755;29;20061;-87
2021/03/19 02:47:16;;;;;;;21.40;14.90;;;;;;;2.45;62.24;93351.16;4859273;29;20049;-88
2021/03/19 02:50:39;;;;;;;17.50;12.63;;;;;;;2.68;62.55;93391.78;4878029;29;20194;-88
2021/03/19 02:53:27;;;;;;;16.75;11.82;;;;;;;2.27;61.92;93330.69;4845826;29;20747;-87
2021/03/19 02:56:09;;;;;;;17.83;12.40;;;;;;;2.34;61.68;93339.09;4859981;29;20064;-87
2021/03/19 02:58:35;;;;;;;18.63;11.30;;;;;;;2.50;61.80;93370.25;4922176;28;20114;-86
2021/03/19 03:01:13;;;;;;;16.70;11.00;;;;;;;2.70;62.05;93406.13;4905255;28;20051;-87
2021/03/19 03:04:07;;;;;;;17.35;12.77;;;;;;;2.38;62.36;93359.22;4906239;28;20086;-86
2021/03/19 03:06:58;;;;;;;18.15;13.05;;;;;;;2.66;62.75;93409.50;4849949;28;20108;-87
2021/03/19 03:09:36;;;;;;;19.98;12.20;;;;;;;2.54;62.34;93378.38;4873915;29;20055;-87
2021/03/19 03:12:31;;;;;;;18.48;12.77;;;;;;;2.50;61.96;93364.25;4887285;28;20163;-86
2021/03/19 03:15:00;;;;;;;17.80;12.50;;;;;;;2.50;62.54;93379.88;4816453;28;20797;-87
2021/03/19 03:17:54;;;;;;;17.45;12.80;;;;;;;2.45;62.76;93377.22;4850892;28;20296;-87
2021/03/19 03:23:54;;;;;;;19.50;14.43;;;;;;;2.22;63.22;93335.84;4874034;29;20060;-86
2021/03/19 03:26:26;;;;;;;22.42;14.55;;;;;;;2.44;63.24;93350.41;4851818;29;20670;-86
2021/03/19 03:29:22;;;;;;;;;;;;;;;;;;;;;
2021/03/19 03:34:57;;;;;;;19.20;13.20;;;;;;;2.65;63.25;93397.47;4912072;28;20439;-86
2021/03/19 03:37:47;;;;;;;16.92;12.55;;;;;;;2.31;62.61;93326.53;4888057;28;20123;-86
2021/03/19 03:40:31;;;;;;;18.90;12.93;;;;;;;2.80;61.82;93401.00;4885860;28;21508;-86
2021/03/19 03:43:32;;;;;;;17.23;11.63;;;;;;;2.57;60.97;93362.22;4923756;28;20093;-86
2021/03/19 03:46:16;;;;;;;15.15;10.48;;;;;;;2.52;60.42;93330.88;4927883;28;20035;-86
2021/03/19 03:49:14;;;;;;;;;;;;;;;;;;;;;
2021/03/19 03:51:41;;;;;;;15.38;11.48;;;;;;;2.43;60.98;93342.81;4869109;28;21475;-86
2021/03/19 03:55:03;;;;;;;16.88;11.43;;;;;;;2.47;61.79;93351.72;4935136;23;20051;-86
2021/03/19 03:57:43;;;;;;;;;;;;;;;;;;;;;
2021/03/19 04:00:24;;;;;;;17.08;12.43;;;;;;;2.59;60.68;93373.97;4870635;28;20624;-86
2021/03/19 04:02:55;;;;;;;15.15;10.55;;;;;;;2.39;60.53;93341.75;4912454;28;20051;-87
2021/03/19 04:05:50;;;;;;;17.08;11.02;;;;;;;2.40;60.55;93338.06;4900501;28;20077;-86
2021/03/19 04:08:31;;;;;;;16.10;10.98;;;;;;;2.34;61.30;93341.69;4859566;28;20233;-87
2021/03/19 04:11:19;;;;;;;14.93;11.38;;;;;;;2.84;60.61;93416.94;4892832;28;20047;-86
2021/03/19 04:14:11;;;;;;;15.95;11.38;;;;;;;2.65;60.96;93390.44;4912777;28;20139;-86
2021/03/19 04:16:36;;;;;;;18.00;11.15;;;;;;;2.77;60.70;93417.16;4877321;28;20147;-84
2021/03/19 04:19:39;;;;;;;16.25;11.75;;;;;;;2.50;61.17;93359.81;4867810;28;20047;-87
2021/03/19 04:23:00;;;;;;;17.98;12.07;;;;;;;2.53;60.30;93361.16;4923208;28;20046;-86
2021/03/19 04:25:42;;;;;;;17.17;11.52;;;;;;;2.73;60.36;93391.81;4872776;28;20138;-86
2021/03/19 04:28:38;;;;;;;17.05;12.23;;;;;;;2.80;60.53;93401.00;4882532;28;20189;-87
2021/03/19 04:31:15;;;;;;;17.02;12.40;;;;;;;2.92;60.24;93430.31;4861727;28;20035;-86
2021/03/19 04:33:59;;;;;;;17.98;12.65;;;;;;;2.58;60.79;93379.44;4873429;28;20107;-87
2021/03/19 04:36:59;;;;;;;15.65;11.02;;;;;;;2.51;59.94;93348.34;4935739;28;20047;-86
2021/03/19 04:39:29;;;;;;;17.88;12.68;;;;;;;2.95;60.81;93419.38;4934730;28;20042;-87
2021/03/19 04:41:58;;;;;;;17.23;11.35;;;;;;;2.63;60.13;93373.47;4951168;28;20142;-85
2021/03/19 04:44:32;;;;;;;18.45;12.77;;;;;;;2.69;59.93;93362.81;4951045;28;20046;-86
2021/03/19 04:47:11;;;;;;;18.42;12.60;;;;;;;2.86;60.00;93388.78;4916529;28;20051;-86
2021/03/19 04:49:52;;;;;;;17.95;11.70;;;;;;;2.89;60.74;93393.47;4922344;28;20070;-87
2021/03/19 04:52:39;;;;;;;38.20;19.60;;;;;;;3.19;59.80;93432.06;4894580;28;20960;-86
2021/03/19 04:55:29;;;;;;;23.00;14.88;;;;;;;3.26;58.89;93430.03;4914505;28;20115;-87
2021/03/19 05:04:54;;;;;;;34.05;18.63;;;;;;;3.01;57.28;93389.66;4836059;29;20037;-87
2021/03/19 05:11:08;;;;;;;;;;;;;;;;;;;;;
2021/03/19 05:13:47;;;;;;;23.92;14.75;;;;;;;2.75;56.51;93356.59;4843282;29;20508;-87
2021/03/19 05:16:33;;;;;;;35.22;22.13;;;;;;;3.21;56.89;93422.94;4858199;28;20670;-87
2021/03/19 05:19:15;;;;;;;;;;;;;;;;;;;;;
2021/03/19 05:21:47;;;;;;;18.60;11.25;;;;;;;3.09;57.08;93392.84;4933964;28;20047;-88
2021/03/19 05:24:31;;;;;;;18.63;13.07;;;;;;;3.34;58.27;93443.38;4870321;28;20504;-87
2021/03/19 05:26:59;;;;;;;17.95;12.75;;;;;;;2.92;57.80;93377.34;4856516;28;20082;-87
2021/03/19 05:29:52;;;;;;;17.85;12.77;;;;;;;3.41;57.66;93445.78;4909346;28;20058;-87
2021/03/19 05:32:25;;;;;;;20.05;11.90;;;;;;;3.10;55.40;93389.19;4790803;29;20666;-87
2021/03/19 05:35:22;;;;;;;20.63;13.38;;;;;;;3.39;56.83;93434.78;4831638;29;20123;-87
2021/03/19 05:37:51;;;;;;;23.00;13.77;;;;;;;3.20;56.11;93402.31;4809632;29;20049;-87
2021/03/19 05:43:16;;;;;;;;;;;;;;;3.64;54.53;93465.50;4696161;26;20523;-86
2021/03/19 05:49:47;;;;;;;19.90;12.85;;;;;;;3.65;54.91;93460.03;4885342;28;20499;-87
2021/03/19 05:52:47;;;;;;;18.70;13.38;;;;;;;3.58;55.24;93443.78;4937796;28;20049;-87
2021/03/19 05:55:34;;;;;;;17.95;12.73;;;;;;;3.47;54.31;93400.34;4932469;28;20055;-87
2021/03/19 05:59:05;;;;;;;15.98;10.98;;;;;;;3.58;53.88;93391.53;4967337;28;20572;-88
2021/03/19 06:04:54;;;;;;;18.67;11.85;;;;;;;3.79;53.46;93387.97;4863788;28;20203;-87
2021/03/19 06:08:09;;;;;;;16.15;11.18;;;;;;;4.20;53.14;93424.69;4906967;28;20600;-87
2021/03/19 06:10:57;;;;;;;13.60;10.50;;;;;;;4.39;50.73;93404.84;4886994;28;20268;-87
2021/03/19 06:13:31;;;;;;;15.68;10.30;;;;;;;5.08;51.60;93473.19;4891178;28;20229;-88
2021/03/19 06:16:33;;;;;;;15.77;9.98;;;;;;;5.43;50.92;93464.53;4907115;28;20116;-86
2021/03/19 06:19:22;;;;;;;15.55;9.35;;;;;;;6.07;49.47;93462.03;4940270;28;20045;-88
2021/03/19 06:21:47;;;;;;;11.98;9.77;;;;;;;6.48;47.66;93425.88;4942561;28;20508;-88
2021/03/19 06:24:26;;;;;;;10.90;8.55;;;;;;;7.56;44.40;93463.41;4900789;28;20134;-88
2021/03/19 06:27:19;;;;;;;13.18;8.65;;;;;;;7.72;43.44;93441.94;4961161;28;20046;-87
2021/03/19 06:30:02;;;;;;;10.98;9.43;;;;;;;8.28;42.19;93442.09;4941959;28;20690;-87
2021/03/19 06:33:12;;;;;;;12.10;9.75;;;;;;;9.19;40.22;93434.00;4855938;28;20049;-88
2021/03/19 06:36:26;;;;;;;10.70;8.25;;;;;;;10.13;37.53;93429.16;4857574;28;20051;-88
2021/03/19 06:39:57;;;;;;;11.85;8.40;;;;;;;11.07;37.11;93472.38;4879034;28;20090;-88
2021/03/19 06:46:45;;;;;;;11.85;8.82;;;;;;;12.38;35.17;93475.50;4942236;23;20085;-89
2021/03/19 06:49:57;;;;;;;;;;;;;;;12.60;33.24;93467.47;4957931;28;20047;-91
2021/03/19 07:03:56;;;;;;;8.88;7.97;;;;;;;16.45;27.22;93459.84;4747239;29;20126;-89
2021/03/19 07:14:16;;;;;;;;;;;;;;;;;;;;;
2021/03/19 07:24:00;;;;;;;9.93;7.05;;;;;;;22.47;20.69;93461.78;4887951;29;20098;-90
2021/03/19 07:45:53;;;;;;;;;;;;;;;;;;;;;
2021/03/19 07:53:03;;;;;;;;;;;;;;;;;;;;;
2021/03/19 08:32:45;;;;;;;11.95;10.75;;;;;;;21.30;21.39;93443.53;4822808;29;20148;-89
2021/03/19 08:36:12;;;;;;;;;;;;;;;;;;;;;
2021/03/19 08:39:40;;;;;;;;;;;;;;;;;;;;;
2021/03/19 08:43:08;;;;;;;;;;;;;;;;;;;;;
2021/03/19 08:46:23;;;;;;;;;;;;;;;;;;;;;
2021/03/19 08:56:10;;;;;;;11.05;9.95;;;;;;;25.91;17.91;93438.50;4974135;23;20220;-92
2021/03/19 09:03:12;;;;;;;;;;;;;;;;;;;;;
2021/03/19 09:05:35;;;;;;;14.57;10.57;;;;;;;27.59;16.51;93432.28;4794553;29;20652;-93
2021/03/19 09:09:08;;;;;;;;;;;;;;;;;;;;;
2021/03/19 09:12:17;;;;;;;;;;;;;;;;;;;;;
2021/03/19 09:15:14;;;;;;;10.82;9.80;;;;;;;27.64;15.79;93431.06;4899996;28;20044;-94
2021/03/19 09:20:41;;;;;;;10.98;9.88;;;;;;;26.16;16.63;93423.66;4928583;28;20555;-95
2021/03/19 09:23:22;;;;;;;11.57;10.43;;;;;;;25.97;17.59;93426.09;4909909;28;20039;-89
2021/03/19 09:25:59;;;;;;;12.50;10.75;;;;;;;25.43;17.53;93377.56;4952209;28;20085;-92
2021/03/19 09:28:57;;;;;;;12.50;11.30;;;;;;;26.38;17.66;93426.28;4922667;28;20522;-92
2021/03/19 09:31:26;;;;;;;12.27;11.07;;;;;;;27.02;18.09;93432.03;4973265;28;20060;-92
2021/03/19 09:33:54;;;;;;;10.63;9.65;;;;;;;27.04;16.90;93429.69;4997133;28;20149;-94
2021/03/19 09:36:59;;;;;;;11.52;9.45;;;;;;;27.49;17.05;93425.78;4928379;28;20035;-92
2021/03/19 09:39:54;;;;;;;13.10;11.90;;;;;;;27.62;16.31;93430.69;4971331;28;20575;-95
2021/03/19 09:43:31;;;;;;;10.82;9.70;;;;;;;26.47;16.94;93432.81;4894683;28;20108;-94
2021/03/19 09:46:17;;;;;;;20.48;11.10;;;;;;;25.60;18.01;93410.41;4898373;28;20042;-93
2021/03/19 09:49:26;;;;;;;13.35;11.35;;;;;;;25.40;18.09;93375.66;4923169;28;20063;-90
2021/03/19 09:51:53;;;;;;;12.27;11.07;;;;;;;25.41;17.97;93428.56;4924525;28;20149;-92
2021/03/19 09:54:27;;;;;;;13.75;12.32;;;;;;;25.05;18.46;93424.41;4899352;28;20081;-90
2021/03/19 09:57:16;;;;;;;13.43;12.13;;;;;;;23.90;18.78;93367.16;4879414;28;20055;-94
2021/03/19 10:00:20;;;;;;;13.27;11.98;;;;;;;22.75;20.37;93439.75;4949452;28;20049;-93
2021/03/19 10:02:48;;;;;;;27.83;18.55;;;;;;;21.76;21.39;93422.56;4869327;28;20076;-90
2021/03/19 10:05:24;;;;;;;13.50;12.10;;;;;;;20.34;22.42;93391.03;4934518;28;20108;-91
2021/03/19 10:07:56;;;;;;;16.45;12.27;;;;;;;20.48;22.50;93393.16;4958929;28;20058;-90
2021/03/19 10:11:07;;;;;;;15.52;10.60;;;;;;;20.69;22.19;93437.25;4975090;28;20121;-90
2021/03/19 10:13:35;;;;;;;12.82;9.82;;;;;;;20.89;22.03;93435.25;4946382;28;20050;-89
2021/03/19 10:16:08;;;;;;;12.05;10.73;;;;;;;20.80;21.75;93425.88;4976275;28;20480;-91
2021/03/19 10:18:44;;;;;;;13.05;11.60;;;;;;;20.18;22.66;93436.72;4959289;28;20041;-90
2021/03/19 10:21:15;;;;;;;17.77;10.90;;;;;;;19.54;23.43;93442.03;4936723;28;20140;-90
2021/03/19 10:24:03;;;;;;;22.20;11.57;;;;;;;19.04;24.08;93411.50;4947934;28;20057;-90
2021/03/19 10:26:43;;;;;;;14.27;10.70;;;;;;;18.27;24.72;93397.88;4966920;28;20042;-92
2021/03/19 10:29:15;;;;;;;12.25;10.30;;;;;;;17.81;24.19;93450.16;4954576;28;20053;-92
2021/03/19 10:31:51;;;;;;;12.68;10.48;;;;;;;17.24;25.24;93421.09;4966035;28;20057;-90
2021/03/19 10:34:36;;;;;;;15.18;10.85;;;;;;;16.73;26.28;93402.06;4970291;28;20054;-89
2021/03/19 10:37:05;;;;;;;12.98;10.82;;;;;;;16.63;26.00;93445.22;4940290;28;20042;-91
2021/03/19 10:39:47;;;;;;;16.65;13.38;;;;;;;16.71;26.76;93436.31;4967470;28;20182;-91
2021/03/19 10:42:37;;;;;;;16.00;14.27;;;;;;;16.86;27.08;93443.63;4970416;28;20054;-90
2021/03/19 10:45:26;;;;;;;13.18;11.50;;;;;;;16.64;27.75;93446.00;4947661;28;20046;-90
2021/03/19 10:48:03;;;;;;;13.23;10.52;;;;;;;16.26;26.48;93435.63;4954486;28;20043;-92
2021/03/19 10:50:38;;;;;;;12.30;10.77;;;;;;;15.75;27.25;93389.78;4958308;28;20507;-92
2021/03/19 10:53:17;;;;;;;17.25;12.32;;;;;;;16.04;27.62;93402.94;4945909;28;20054;-92
2021/03/19 10:55:50;;;;;;;18.08;13.15;;;;;;;16.37;26.58;93423.41;4944201;28;20051;-91
2021/03/19 10:58:22;;;;;;;12.15;9.68;;;;;;;16.34;26.22;93426.72;4956467;28;20055;-90
2021/03/19 11:00:54;;;;;;;10.77;9.65;;;;;;;15.92;27.78;93402.16;4958866;28;20181;-92
2021/03/19 11:03:43;;;;;;;13.13;10.15;;;;;;;16.11;27.63;93422.94;4969513;28;20481;-90
2021/03/19 11:06:13;;;;;;;12.52;9.02;;;;;;;15.86;27.04;93422.91;4960128;28;20046;-90
2021/03/19 11:08:39;;;;;;;10.98;9.65;;;;;;;15.73;28.57;93434.63;4964525;28;20058;-92
2021/03/19 11:11:08;;;;;;;11.10;9.48;;;;;;;15.91;27.36;93425.34;4957756;28;20049;-89
2021/03/19 11:13:37;;;;;;;11.63;10.07;;;;;;;15.89;26.99;93406.22;4957771;28;20130;-91
2021/03/19 11:16:25;;;;;;;17.50;10.32;;;;;;;16.10;28.14;93426.69;4941768;28;20065;-89
2021/03/19 11:19:03;;;;;;;12.15;9.63;;;;;;;16.29;26.91;93425.06;4959940;28;20031;-91
2021/03/19 11:21:32;;;;;;;29.83;18.45;;;;;;;16.23;27.23;93425.59;4957309;28;20073;-90
2021/03/19 11:24:23;;;;;;;10.35;9.25;;;;;;;15.98;27.60;93425.56;4957448;28;20074;-90
2021/03/19 11:27:14;;;;;;;21.38;9.88;;;;;;;15.49;27.34;93375.94;4968763;28;20522;-87
2021/03/19 11:29:42;;;;;;;13.30;9.77;;;;;;;15.55;28.03;93422.56;4947624;28;20082;-91
2021/03/19 11:32:11;;;;;;;15.38;10.45;;;;;;;15.47;28.00;93418.88;4946900;28;20377;-89
2021/03/19 11:34:41;;;;;;;13.23;10.57;;;;;;;15.09;29.10;93429.69;4953483;28;20058;-90
2021/03/19 11:37:14;;;;;;;10.50;8.93;;;;;;;14.81;29.92;93425.94;4970718;28;20476;-90
2021/03/19 11:40:04;;;;;;;13.63;9.63;;;;;;;14.69;29.51;93417.91;4972954;28;20031;-91
2021/03/19 11:42:48;;;;;;;11.75;9.07;;;;;;;14.06;30.42;93427.59;4957896;28;20134;-91
2021/03/19 11:45:20;;;;;;;12.18;9.60;;;;;;;14.14;28.71;93423.31;4953707;28;20358;-88
2021/03/19 11:48:30;;;;;;;12.70;9.02;;;;;;;14.38;29.74;93420.09;4971364;28;20035;-90
2021/03/19 11:51:30;;;;;;;10.27;8.90;;;;;;;14.18;29.19;93409.06;4945740;28;20055;-89
2021/03/19 11:53:57;;;;;;;10.80;8.68;;;;;;;13.80;29.43;93416.25;4954869;28;20121;-89
2021/03/19 11:56:23;;;;;;;12.98;9.38;;;;;;;13.59;30.45;93410.06;4954420;28;20122;-90
2021/03/19 11:58:49;;;;;;;9.57;8.20;;;;;;;12.75;30.99;93352.25;4871451;28;20071;-90
2021/03/19 12:01:14;;;;;;;11.02;9.70;;;;;;;13.22;30.78;93398.25;4905510;28;20070;-90
2021/03/19 12:03:46;;;;;;;15.88;9.68;;;;;;;13.19;32.03;93391.72;4956877;28;20101;-91
2021/03/19 12:06:14;;;;;;;14.80;10.30;;;;;;;12.92;31.09;93370.78;4923623;28;20055;-91
2021/03/19 12:08:41;;;;;;;22.02;12.82;;;;;;;13.03;31.46;93350.81;4931362;28;20043;-90
2021/03/19 12:11:11;;;;;;;11.38;9.00;;;;;;;13.45;31.72;93411.03;4950020;28;20407;-88
2021/03/19 12:13:57;;;;;;;14.85;9.55;;;;;;;13.28;31.71;93389.84;4944945;28;20105;-88
2021/03/19 12:16:23;;;;;;;15.98;8.68;;;;;;;12.84;31.83;93382.19;4939036;28;20644;-89
2021/03/19 12:18:49;;;;;;;11.85;9.45;;;;;;;13.03;31.21;93411.81;4942593;28;20460;-89
2021/03/19 12:21:20;;;;;;;13.27;10.55;;;;;;;13.00;31.35;93399.16;4949991;28;20761;-89
2021/03/19 12:23:46;;;;;;;12.43;10.57;;;;;;;12.70;32.00;93387.63;4956558;28;20048;-90
2021/03/19 12:26:11;;;;;;;11.25;9.38;;;;;;;12.74;31.93;93390.44;4951293;28;20419;-90
2021/03/19 12:28:37;;;;;;;13.07;9.52;;;;;;;12.55;31.33;93380.91;4922416;28;20051;-90
2021/03/19 12:31:07;;;;;;;12.52;10.35;;;;;;;12.44;31.90;93362.97;4933917;28;20499;-91
2021/03/19 12:33:39;;;;;;;13.18;10.75;;;;;;;12.70;32.04;93408.84;4937937;28;20442;-91
2021/03/19 12:36:07;;;;;;;62.22;28.35;;;;;;;12.83;32.15;93372.66;4902704;28;20051;-92
2021/03/19 12:42:22;;;;;;;13.20;11.05;;;;;;;12.32;32.46;93365.44;4866876;28;20138;-91
2021/03/19 12:44:50;;;;;;;18.50;11.10;;;;;;;12.52;33.10;93348.94;4852505;28;20051;-91
2021/03/19 12:50:12;;;;;;;14.95;12.65;;;;;;;12.58;32.57;93390.88;4863616;28;20040;-92
2021/03/19 12:52:40;;;;;;;11.93;10.68;;;;;;;12.07;32.12;93335.16;4897781;28;20062;-94
2021/03/19 12:55:38;;;;;;;15.23;11.60;;;;;;;12.41;32.99;93406.00;4877387;28;20557;-94
2021/03/19 12:59:08;;;;;;;;;;;;;;;;;;;;;
2021/03/19 13:09:12;;;;;;;22.35;11.75;;;;;;;11.65;33.21;93326.75;4778182;29;20380;-90
2021/03/19 13:12:15;;;;;;;14.45;9.65;;;;;;;11.79;31.77;93368.25;4913541;28;20128;-92
2021/03/19 13:15:10;;;;;;;11.98;10.07;;;;;;;11.74;33.96;93395.63;4906353;28;20044;-93
2021/03/19 13:18:14;;;;;;;20.77;16.38;;;;;;;11.47;33.60;93351.59;4860728;28;20128;-87
2021/03/19 13:20:41;;;;;;;18.70;14.73;;;;;;;11.57;34.29;93372.50;4888908;28;20063;-91
2021/03/19 13:23:42;;;;;;;16.83;12.70;;;;;;;11.67;33.17;93358.22;4836185;28;20050;-89
2021/03/19 13:26:46;;;;;;;14.38;11.00;;;;;;;11.71;33.46;93362.59;4883714;29;20173;-88
2021/03/19 13:29:17;;;;;;;81.88;46.10;;;;;;;12.00;34.38;93379.84;4871259;28;20064;-91
2021/03/19 13:31:46;;;;;;;19.42;13.70;;;;;;;11.89;33.54;93362.66;4911837;29;20043;-92
2021/03/19 13:34:14;;;;;;;56.00;32.85;;;;;;;11.75;33.82;93324.94;4868310;28;20099;-89
2021/03/19 13:37:12;;;;;;;;;;;;;;;;;;;;;
2021/03/19 13:39:41;;;;;;;37.78;22.90;;;;;;;11.80;33.36;93332.75;4844667;28;21732;-91
2021/03/19 13:42:21;;;;;;;31.75;20.13;;;;;;;11.92;34.67;93359.44;4948111;28;20074;-92
2021/03/19 13:44:54;;;;;;;36.50;20.63;;;;;;;12.04;33.35;93370.97;4890785;28;20044;-92
2021/03/19 13:47:19;;;;;;;94.35;49.78;;;;;;;12.11;33.38;93370.53;4962346;28;20038;-91
2021/03/19 13:49:59;;;;;;;34.58;20.45;;;;;;;11.92;32.76;93375.31;4941364;28;20041;-87
2021/03/19 13:52:25;;;;;;;20.88;13.90;;;;;;;11.66;33.48;93365.38;4917900;28;20162;-93
2021/03/19 13:55:02;;;;;;;20.88;13.07;;;;;;;11.83;33.26;93371.81;4944721;28;20060;-92
2021/03/19 13:57:49;;;;;;;23.73;15.93;;;;;;;11.98;34.27;93382.00;4956211;28;20134;-85
2021/03/19 14:00:19;;;;;;;24.35;17.67;;;;;;;11.86;33.44;93373.88;4958140;28;20042;-91
2021/03/19 14:02:45;;;;;;;59.17;30.05;;;;;;;11.79;32.42;93347.06;4971236;28;20023;-91
2021/03/19 14:05:24;;;;;;;54.65;30.33;;;;;;;11.94;34.14;93424.22;4959230;28;20180;-89
2021/03/19 14:07:54;;;;;;;18.42;13.80;;;;;;;12.06;33.33;93421.00;4969474;28;20027;-88
2021/03/19 14:30:38;;;;;;;28.50;19.27;;;;;;;11.45;34.66;93406.66;4940860;28;20190;-85
2021/03/19 14:33:25;;;;;;;45.80;29.58;;;;;;;11.26;35.02;93369.84;4942640;28;20046;-84
2021/03/19 14:35:59;;;;;;;45.33;28.50;;;;;;;11.44;34.56;93410.38;4968326;28;20055;-84
2021/03/19 14:38:29;;;;;;;22.85;15.55;;;;;;;11.17;34.96;93378.81;4966851;28;20516;-84
2021/03/19 14:44:16;;;;;;;91.40;41.35;;;;;;;11.18;33.53;93401.53;4957089;28;20534;-84
2021/03/19 14:46:46;;;;;;;33.70;19.40;;;;;;;11.23;34.10;93427.84;4949647;28;20039;-85
2021/03/19 14:49:13;;;;;;;69.80;36.08;;;;;;;10.86;35.67;93379.50;4970575;28;20519;-84
2021/03/19 14:51:42;;;;;;;152.50;84.05;;;;;;;11.02;35.05;93408.25;4971247;28;20043;-84
2021/03/19 14:54:11;;;;;;;99.07;56.40;;;;;;;11.08;34.22;93401.75;4945601;28;20043;-84
2021/03/19 14:56:51;;;;;;;207.85;100.70;;;;;;;10.76;34.73;93377.09;4870500;28;20079;-84
2021/03/19 15:00:03;;;;;;;;;;;;;;;;;;;;;
2021/03/19 15:02:54;;;;;;;20.02;12.52;;;;;;;11.00;34.86;93436.84;4822275;28;20124;-84
2021/03/19 15:05:42;;;;;;;17.08;11.35;;;;;;;10.55;34.47;93396.38;4822420;29;20130;-84
2021/03/19 15:08:25;;;;;;;12.70;9.65;;;;;;;10.66;36.08;93434.69;4865537;29;20048;-90
2021/03/19 15:10:54;;;;;;;125.30;62.53;;;;;;;10.42;36.09;93421.72;4916524;28;20062;-86
2021/03/19 15:13:20;;;;;;;132.85;68.22;;;;;;;10.33;36.04;93418.22;4904428;29;20544;-86
2021/03/19 15:15:48;;;;;;;142.73;69.32;;;;;;;10.42;35.97;93450.78;4960620;28;20068;-86
2021/03/19 15:18:19;;;;;;;106.10;51.17;;;;;;;9.85;36.49;93379.00;4971823;28;20612;-88
2021/03/19 15:20:55;;;;;;;201.55;99.88;;;;;;;10.02;36.87;93439.13;4966780;28;20065;-86
2021/03/19 15:23:28;;;;;;;116.00;59.55;;;;;;;10.05;36.97;93443.81;4951689;28;20133;-87
2021/03/19 15:25:59;;;;;;;71.05;38.10;;;;;;;9.98;36.80;93459.25;4927234;28;20051;-87
2021/03/19 15:28:32;;;;;;;40.45;25.13;;;;;;;9.82;36.83;93434.25;4951182;28;20118;-88
2021/03/19 15:31:12;;;;;;;;;;;;;;;;;;;;;
2021/03/19 15:33:38;;;;;;;65.22;37.33;;;;;;;9.41;37.51;93431.53;4948027;28;20506;-88
2021/03/19 15:36:16;;;;;;;36.85;25.73;;;;;;;9.53;37.54;93472.19;4936133;28;20054;-89
2021/03/19 15:38:44;;;;;;;30.98;22.00;;;;;;;9.08;37.28;93413.09;4922303;28;20611;-89
2021/03/19 15:41:23;;;;;;;39.72;24.45;;;;;;;9.25;38.11;93430.19;4924917;28;21065;-91
2021/03/19 15:44:01;;;;;;;;;;;;;;;;;;;;;
2021/03/19 15:46:33;;;;;;;25.52;17.80;;;;;;;9.01;38.12;93409.22;4899305;28;20065;-89
2021/03/19 15:49:24;;;;;;;22.98;16.65;;;;;;;9.43;38.16;93474.97;4931858;28;20042;-88
2021/03/19 15:52:26;;;;;;;26.67;18.30;;;;;;;9.14;37.87;93480.44;4942340;28;20523;-87
2021/03/19 15:55:14;;;;;;;19.63;15.18;;;;;;;8.67;38.74;93425.28;4927440;28;20038;-88
2021/03/19 15:57:41;;;;;;;22.80;15.43;;;;;;;8.58;39.04;93458.59;4927612;28;20813;-87
2021/03/19 16:00:09;;;;;;;21.80;15.65;;;;;;;8.27;39.66;93432.63;4940846;28;20054;-88
2021/03/19 16:02:38;;;;;;;18.73;13.85;;;;;;;8.08;38.71;93433.66;4911465;28;20050;-88
2021/03/19 16:05:10;;;;;;;19.63;14.32;;;;;;;8.31;38.88;93468.97;4912932;28;20066;-87
2021/03/19 16:07:39;;;;;;;22.60;15.02;;;;;;;8.32;39.25;93473.94;4925243;28;20571;-88
2021/03/19 16:10:06;;;;;;;17.38;13.82;;;;;;;8.15;39.33;93476.22;4924346;28;20054;-86
2021/03/19 16:12:43;;;;;;;16.00;12.38;;;;;;;8.13;38.78;93462.56;4928621;28;20263;-89
2021/03/19 16:15:56;;;;;;;;;;;;;;;;;;;;;
2021/03/19 16:18:34;;;;;;;19.58;14.75;;;;;;;8.30;40.00;93504.25;4784042;29;20085;-90